createdAt,value
2023-01-19T00:02:07.003Z,5.27
2023-01-19T00:04:34.069Z,5.40
2023-01-19T00:07:03.111Z,4.50
2023-01-19T00:09:33.419Z,4.10
2023-01-19T00:12:03.288Z,4.53
2023-01-19T00:14:30.143Z,4.47
2023-01-19T00:16:56.881Z,4.33
2023-01-19T00:19:23.394Z,4.50
2023-01-19T00:21:50.019Z,5.53
2023-01-19T00:24:16.685Z,4.57
2023-01-19T00:26:44.433Z,4.40
2023-01-19T00:29:11.432Z,4.20
2023-01-19T00:31:39.434Z,5.00
2023-01-19T00:34:06.501Z,3.83
2023-01-19T00:36:35.238Z,4.07
2023-01-19T00:39:01.906Z,4.33
2023-01-19T00:41:47.204Z,3.83
2023-01-19T00:44:13.842Z,4.87
2023-01-19T00:46:40.275Z,3.23
2023-01-19T00:49:07.346Z,5.40
2023-01-19T00:51:34.517Z,4.23
2023-01-19T00:54:05.041Z,4.10
2023-01-19T00:56:32.241Z,3.40
2023-01-19T00:59:00.814Z,3.60
2023-01-19T01:01:45.165Z,3.73
2023-01-19T01:04:15.797Z,3.57
2023-01-19T01:06:42.582Z,3.87
2023-01-19T01:09:14.713Z,3.57
2023-01-19T01:11:42.361Z,4.60
2023-01-19T01:14:10.860Z,4.50
2023-01-19T01:16:37.493Z,3.73
2023-01-19T01:19:05.258Z,3.67
2023-01-19T01:21:34.563Z,3.40
2023-01-19T01:24:01.720Z,4.83
2023-01-19T01:26:28.132Z,3.93
2023-01-19T01:28:55.331Z,3.17
2023-01-19T01:31:30.841Z,4.63
2023-01-19T01:33:57.443Z,4.43
2023-01-19T01:36:24.190Z,4.23
2023-01-19T01:38:51.460Z,4.10
2023-01-19T01:41:21.141Z,4.03
2023-01-19T01:43:50.908Z,4.00
2023-01-19T01:46:18.176Z,4.50
2023-01-19T01:48:53.783Z,4.17
2023-01-19T01:51:31.334Z,4.78
2023-01-19T01:54:00.114Z,4.43
2023-01-19T01:56:33.767Z,3.63
2023-01-19T01:59:03.023Z,4.97
2023-01-19T02:01:48.880Z,4.00
2023-01-19T02:04:20.614Z,4.60
2023-01-19T02:07:06.816Z,4.77
2023-01-19T02:09:53.245Z,4.03
2023-01-19T02:12:38.275Z,3.90
2023-01-19T02:15:05.133Z,4.17
2023-01-19T02:17:31.582Z,4.10
2023-01-19T02:19:58.358Z,4.50
2023-01-19T02:22:29.008Z,4.23
2023-01-19T02:24:56.624Z,4.70
2023-01-19T02:27:23.728Z,3.83
2023-01-19T02:29:50.065Z,3.07
2023-01-19T02:32:16.451Z,3.73
2023-01-19T02:34:42.837Z,4.40
2023-01-19T02:37:11.793Z,4.27
2023-01-19T02:39:41.615Z,4.30
2023-01-19T02:42:19.715Z,3.63
2023-01-19T02:44:48.581Z,4.13
2023-01-19T02:47:18.297Z,3.23
2023-01-19T02:49:47.077Z,3.57
2023-01-19T02:52:17.754Z,4.27
2023-01-19T02:54:49.539Z,3.83
2023-01-19T02:57:34.475Z,3.53
2023-01-19T03:00:19.237Z,3.27
2023-01-19T03:03:06.406Z,4.90
2023-01-19T03:05:51.615Z,4.10
2023-01-19T03:08:27.924Z,4.47
2023-01-19T03:10:57.789Z,4.38
2023-01-19T03:13:40.483Z,3.27
2023-01-19T03:16:10.185Z,3.93
2023-01-19T03:18:37.263Z,3.87
2023-01-19T03:21:05.672Z,4.43
2023-01-19T03:23:34.567Z,5.13
2023-01-19T03:26:04.918Z,4.43
2023-01-19T03:28:32.513Z,4.03
2023-01-19T03:31:01.538Z,3.83
2023-01-19T03:33:32.270Z,4.13
2023-01-19T03:36:12.100Z,3.97
2023-01-19T03:38:41.725Z,4.80
2023-01-19T03:41:12.858Z,4.23
2023-01-19T03:43:41.299Z,3.40
2023-01-19T03:46:11.018Z,4.30
2023-01-19T03:48:38.556Z,3.97
2023-01-19T03:51:08.115Z,4.23
2023-01-19T03:53:43.487Z,4.47
2023-01-19T03:58:37.726Z,4.10
2023-01-19T04:01:08.738Z,4.90
2023-01-19T04:03:35.469Z,5.37
2023-01-19T04:06:01.998Z,4.93
2023-01-19T04:08:28.765Z,3.77
2023-01-19T04:10:57.043Z,4.23
2023-01-19T04:13:28.616Z,4.83
2023-01-19T04:15:55.848Z,4.17
2023-01-19T04:18:22.270Z,4.57
2023-01-19T04:20:54.850Z,4.07
2023-01-19T04:26:20.091Z,3.97
2023-01-19T04:28:46.822Z,4.87
2023-01-19T04:31:14.835Z,5.87
2023-01-19T04:33:42.809Z,4.63
2023-01-19T04:36:12.000Z,5.20
2023-01-19T04:38:40.094Z,5.60
2023-01-19T04:41:09.283Z,4.37
2023-01-19T04:43:37.125Z,5.83
2023-01-19T04:46:10.682Z,5.87
2023-01-19T04:48:41.385Z,6.30
2023-01-19T04:51:09.879Z,4.17
2023-01-19T04:53:40.062Z,7.07
2023-01-19T04:56:07.622Z,7.13
2023-01-19T04:58:37.154Z,6.67
2023-01-19T05:01:07.475Z,7.37
2023-01-19T05:03:37.831Z,6.97
2023-01-19T05:06:04.775Z,5.73
2023-01-19T05:08:31.151Z,6.50
2023-01-19T05:10:57.937Z,5.57
2023-01-19T05:13:24.614Z,5.23
2023-01-19T05:15:51.144Z,5.47
2023-01-19T05:18:17.997Z,5.63
2023-01-19T05:20:44.630Z,6.57
2023-01-19T05:23:10.997Z,6.93
2023-01-19T05:25:38.856Z,5.27
2023-01-19T05:28:06.381Z,5.43
2023-01-19T05:30:32.720Z,5.50
2023-01-19T05:32:59.391Z,7.97
2023-01-19T05:35:35.379Z,6.47
2023-01-19T05:38:02.917Z,7.32
2023-01-19T05:40:29.729Z,5.97
2023-01-19T05:43:01.963Z,7.10
2023-01-19T05:45:28.727Z,6.53
2023-01-19T05:47:55.311Z,5.70
2023-01-19T05:50:21.844Z,5.80
2023-01-19T05:52:49.496Z,7.23
2023-01-19T05:55:16.745Z,5.30
2023-01-19T05:57:44.389Z,5.50
2023-01-19T06:00:12.428Z,7.00
2023-01-19T06:02:40.320Z,7.20
2023-01-19T06:05:06.855Z,4.93
2023-01-19T06:07:33.432Z,5.83
2023-01-19T06:09:59.886Z,5.77
2023-01-19T06:12:29.367Z,5.60
2023-01-19T06:14:55.650Z,5.50
2023-01-19T06:17:22.240Z,5.20
2023-01-19T06:19:49.882Z,5.00
2023-01-19T06:22:18.271Z,6.33
2023-01-19T06:24:44.999Z,5.77
2023-01-19T06:27:11.461Z,7.13
2023-01-19T06:29:38.468Z,6.50
2023-01-19T06:32:05.213Z,5.57
2023-01-19T06:34:31.805Z,5.60
2023-01-19T06:37:01.143Z,5.63
2023-01-19T06:39:27.665Z,5.00
2023-01-19T06:41:58.493Z,5.93
2023-01-19T06:44:25.822Z,5.43
2023-01-19T06:46:52.561Z,5.13
2023-01-19T06:49:46.899Z,5.17
2023-01-19T06:52:19.853Z,4.30
2023-01-19T06:54:47.223Z,5.53
2023-01-19T06:57:14.419Z,6.17
2023-01-19T06:59:44.999Z,7.03
2023-01-19T07:02:26.654Z,4.97
2023-01-19T07:04:57.102Z,5.57
2023-01-19T07:07:28.568Z,4.83
2023-01-19T07:09:55.158Z,4.70
2023-01-19T07:12:22.367Z,5.27
2023-01-19T07:14:49.578Z,4.60
2023-01-19T07:17:17.799Z,5.53
2023-01-19T07:19:44.300Z,4.80
2023-01-19T07:22:11.282Z,4.67
2023-01-19T07:24:41.256Z,4.67
2023-01-19T07:27:07.652Z,4.90
2023-01-19T07:29:34.233Z,4.20
2023-01-19T07:32:00.703Z,4.27
2023-01-19T07:34:28.630Z,4.90
2023-01-19T07:36:57.690Z,6.27
2023-01-19T07:39:24.172Z,5.37
2023-01-19T07:41:51.147Z,5.53
2023-01-19T07:44:17.636Z,4.73
2023-01-19T07:46:44.009Z,4.93
2023-01-19T07:49:10.675Z,4.60
2023-01-19T07:51:37.625Z,5.27
2023-01-19T07:54:03.983Z,5.07
2023-01-19T07:56:35.539Z,6.20
2023-01-19T07:59:01.890Z,5.70
2023-01-19T08:01:29.683Z,5.50
2023-01-19T08:03:56.377Z,5.07
2023-01-19T08:06:23.949Z,4.53
2023-01-19T08:08:50.567Z,6.07
2023-01-19T08:11:17.012Z,6.80
2023-01-19T08:13:43.937Z,5.73
2023-01-19T08:16:10.481Z,5.73
2023-01-19T08:18:37.101Z,5.20
2023-01-19T08:21:03.781Z,5.63
2023-01-19T08:23:31.446Z,5.93
2023-01-19T08:25:59.516Z,5.50
2023-01-19T08:28:27.050Z,5.13
2023-01-19T08:30:56.229Z,6.17
2023-01-19T08:33:23.413Z,4.43
2023-01-19T08:35:51.284Z,4.83
2023-01-19T08:38:17.985Z,6.10
2023-01-19T08:40:44.891Z,5.90
2023-01-19T08:43:12.925Z,5.23
2023-01-19T08:45:48.312Z,4.13
2023-01-19T08:48:15.600Z,4.40
2023-01-19T08:50:45.666Z,6.07
2023-01-19T08:53:12.044Z,4.57
2023-01-19T08:55:41.905Z,4.20
2023-01-19T08:58:09.819Z,6.20
2023-01-19T09:00:40.273Z,6.33
2023-01-19T09:03:08.816Z,5.40
2023-01-19T09:05:38.888Z,5.30
2023-01-19T09:08:08.074Z,4.43
2023-01-19T09:10:40.204Z,4.73
2023-01-19T09:13:08.469Z,4.70
2023-01-19T09:15:37.877Z,3.73
2023-01-19T09:18:05.640Z,4.87
2023-01-19T09:20:33.833Z,5.37
2023-01-19T09:23:00.770Z,5.20
2023-01-19T09:25:27.513Z,5.00
2023-01-19T09:27:56.192Z,4.93
2023-01-19T09:30:22.698Z,4.97
2023-01-19T09:32:49.220Z,5.30
2023-01-19T09:35:15.667Z,4.93
2023-01-19T09:37:45.512Z,5.53
2023-01-19T09:40:14.283Z,4.97
2023-01-19T09:42:45.155Z,4.80
2023-01-19T09:45:22.581Z,4.60
2023-01-19T09:47:50.162Z,4.27
2023-01-19T09:50:31.900Z,5.50
2023-01-19T09:53:06.613Z,5.43
2023-01-19T09:55:33.799Z,4.97
2023-01-19T09:58:00.404Z,4.43
2023-01-19T10:00:28.568Z,5.03
2023-01-19T10:02:58.577Z,4.80
2023-01-19T10:05:28.649Z,5.13
2023-01-19T10:08:17.910Z,4.10
2023-01-19T10:10:54.301Z,4.60
2023-01-19T10:13:39.102Z,4.70
2023-01-19T10:16:25.425Z,4.30
2023-01-19T10:18:53.964Z,4.93
2023-01-19T10:21:22.964Z,5.50
2023-01-19T10:23:49.606Z,5.20
2023-01-19T10:26:23.009Z,4.83
2023-01-19T10:28:51.711Z,5.13
2023-01-19T10:31:19.187Z,4.50
2023-01-19T10:33:49.024Z,4.47
2023-01-19T10:36:17.683Z,5.03
2023-01-19T10:38:48.897Z,5.90
2023-01-19T10:41:18.303Z,5.33
2023-01-19T10:43:46.876Z,4.23
2023-01-19T10:46:19.487Z,4.63
2023-01-19T10:48:48.469Z,4.87
2023-01-19T10:51:15.148Z,5.23
2023-01-19T10:53:43.842Z,5.60
2023-01-19T10:56:12.240Z,6.17
2023-01-19T10:58:40.345Z,4.60
2023-01-19T11:01:31.990Z,5.10
2023-01-19T11:04:05.826Z,4.60
2023-01-19T11:06:33.916Z,4.03
2023-01-19T11:09:11.570Z,3.90
2023-01-19T11:11:41.908Z,4.07
2023-01-19T11:14:10.847Z,4.53
2023-01-19T11:16:38.706Z,4.20
2023-01-19T11:19:05.391Z,3.53
2023-01-19T11:21:32.507Z,3.30
2023-01-19T11:24:03.250Z,3.83
2023-01-19T11:26:44.951Z,3.00
2023-01-19T11:29:16.409Z,3.97
2023-01-19T11:31:43.587Z,2.93
2023-01-19T11:34:24.673Z,2.90
2023-01-19T11:36:59.085Z,2.87
2023-01-19T11:39:27.980Z,3.33
2023-01-19T11:41:57.004Z,3.57
2023-01-19T11:44:31.166Z,2.90
2023-01-19T11:47:02.947Z,2.63
2023-01-19T11:49:49.107Z,3.17
2023-01-19T11:52:54.094Z,3.05
2023-01-19T11:55:38.959Z,3.43
2023-01-19T11:58:05.568Z,3.47
2023-01-19T12:00:39.206Z,3.03
2023-01-19T12:03:10.860Z,3.70
2023-01-19T12:05:40.337Z,3.00
2023-01-19T12:08:12.606Z,3.33
2023-01-19T12:10:41.617Z,3.20
2023-01-19T12:13:16.212Z,2.73
2023-01-19T12:15:44.353Z,4.23
2023-01-19T12:18:22.603Z,2.57
2023-01-19T12:20:52.386Z,3.10
2023-01-19T12:23:19.536Z,3.07
2023-01-19T12:25:56.523Z,2.70
2023-01-19T12:28:28.581Z,2.20
2023-01-19T12:30:55.292Z,3.13
2023-01-19T12:33:23.946Z,2.57
2023-01-19T12:35:55.602Z,2.73
2023-01-19T12:38:36.743Z,2.83
2023-01-19T12:41:23.155Z,2.67
2023-01-19T12:44:08.474Z,2.92
2023-01-19T12:46:36.721Z,2.50
2023-01-19T12:49:09.203Z,3.80
2023-01-19T12:51:36.569Z,2.97
2023-01-19T12:54:06.862Z,3.03
2023-01-19T12:56:35.221Z,3.57
2023-01-19T12:59:02.784Z,2.60
2023-01-19T13:01:31.291Z,3.20
2023-01-19T13:04:03.486Z,3.00
2023-01-19T13:07:05.872Z,2.27
2023-01-19T13:09:33.081Z,2.20
2023-01-19T13:12:11.609Z,3.20
2023-01-19T13:14:38.086Z,3.67
2023-01-19T13:17:06.045Z,3.17
2023-01-19T13:19:36.882Z,2.87
2023-01-19T13:22:25.256Z,3.20
2023-01-19T13:25:14.055Z,4.40
2023-01-19T13:27:41.350Z,2.77
2023-01-19T13:30:12.094Z,3.83
2023-01-19T13:32:40.721Z,3.20
2023-01-19T13:35:13.796Z,3.03
2023-01-19T13:37:43.100Z,3.03
2023-01-19T13:40:23.121Z,2.90
2023-01-19T13:42:50.763Z,3.20
2023-01-19T13:45:33.799Z,3.20
2023-01-19T13:48:02.595Z,2.83
2023-01-19T13:50:31.155Z,3.10
2023-01-19T13:52:58.899Z,4.07
2023-01-19T13:55:33.148Z,3.30
2023-01-19T13:57:59.581Z,2.93
2023-01-19T14:00:29.176Z,3.23
2023-01-19T14:03:01.726Z,3.13
2023-01-19T14:05:32.327Z,3.77
2023-01-19T14:08:04.839Z,3.23
2023-01-19T14:10:47.066Z,3.67
2023-01-19T14:13:26.994Z,3.00
2023-01-19T14:15:56.320Z,3.47
2023-01-19T14:18:28.285Z,3.63
2023-01-19T14:21:00.373Z,3.37
2023-01-19T14:23:39.073Z,3.13
2023-01-19T14:26:06.192Z,3.17
2023-01-19T14:28:42.947Z,4.13
2023-01-19T14:31:23.172Z,4.30
2023-01-19T14:33:53.915Z,3.63
2023-01-19T14:36:26.703Z,3.90
2023-01-19T14:39:01.533Z,4.50
2023-01-19T14:41:48.304Z,3.33
2023-01-19T14:44:28.890Z,3.17
2023-01-19T14:46:56.828Z,3.73
2023-01-19T14:49:29.058Z,3.63
2023-01-19T14:51:56.098Z,3.60
2023-01-19T14:54:29.056Z,3.37
2023-01-19T14:56:55.438Z,3.33
2023-01-19T14:59:21.850Z,4.03
2023-01-19T15:01:48.304Z,3.63
2023-01-19T15:04:15.777Z,4.43
2023-01-19T15:06:48.051Z,4.40
2023-01-19T15:09:15.799Z,4.27
2023-01-19T15:11:43.404Z,3.47
2023-01-19T15:14:17.146Z,4.23
2023-01-19T15:16:44.086Z,3.43
2023-01-19T15:19:20.003Z,4.03
2023-01-19T15:21:47.078Z,4.45
2023-01-19T15:24:18.751Z,4.47
2023-01-19T15:26:45.273Z,4.20
2023-01-19T15:29:22.784Z,3.93
2023-01-19T15:31:49.269Z,3.83
2023-01-19T15:34:15.966Z,4.13
2023-01-19T15:36:42.697Z,4.20
2023-01-19T15:39:10.506Z,4.40
2023-01-19T15:41:41.655Z,4.23
2023-01-19T15:44:12.019Z,4.53
2023-01-19T15:46:38.446Z,4.63
2023-01-19T15:49:06.200Z,4.67
2023-01-19T15:51:33.128Z,4.77
2023-01-19T15:53:59.993Z,4.20
2023-01-19T15:56:29.312Z,5.23
2023-01-19T15:58:59.347Z,3.83
2023-01-19T16:01:33.915Z,4.17
2023-01-19T16:04:04.275Z,3.43
2023-01-19T16:06:31.011Z,4.03
2023-01-19T16:09:03.278Z,5.10
2023-01-19T16:11:31.157Z,4.77
2023-01-19T16:13:58.069Z,4.83
2023-01-19T16:16:25.271Z,4.93
2023-01-19T16:18:52.139Z,3.90
2023-01-19T16:21:18.600Z,4.97
2023-01-19T16:23:45.168Z,2.93
2023-01-19T16:26:29.194Z,5.27
2023-01-19T16:28:56.520Z,4.33
2023-01-19T16:31:23.568Z,5.37
2023-01-19T16:33:50.309Z,4.33
2023-01-19T16:36:27.668Z,4.37
2023-01-19T16:38:54.464Z,4.30
2023-01-19T16:41:23.765Z,4.50
2023-01-19T16:43:51.663Z,4.17
2023-01-19T16:46:30.740Z,5.03
2023-01-19T16:49:06.916Z,3.83
2023-01-19T16:51:33.482Z,4.25
2023-01-19T16:54:00.280Z,4.60
2023-01-19T16:56:26.918Z,4.97
2023-01-19T16:58:54.263Z,4.27
2023-01-19T17:01:21.925Z,5.93
2023-01-19T17:03:50.771Z,4.53
2023-01-19T17:06:20.038Z,5.03
2023-01-19T17:08:46.862Z,4.97
2023-01-19T17:11:14.644Z,4.47
2023-01-19T17:13:40.963Z,4.37
2023-01-19T17:16:09.675Z,3.77
2023-01-19T17:21:30.513Z,4.57
2023-01-19T17:23:58.912Z,4.20
2023-01-19T17:26:28.462Z,3.70
2023-01-19T17:28:59.680Z,4.30
2023-01-19T17:31:27.163Z,4.77
2023-01-19T17:33:56.746Z,3.87
2023-01-19T17:36:25.167Z,4.43
2023-01-19T17:38:53.497Z,4.90
2023-01-19T17:41:31.079Z,4.33
2023-01-19T17:44:05.810Z,4.07
2023-01-19T17:46:38.641Z,4.73
2023-01-19T17:49:05.988Z,4.73
2023-01-19T17:51:32.377Z,4.27
2023-01-19T17:54:01.014Z,5.40
2023-01-19T17:56:32.794Z,3.97
2023-01-19T17:58:59.943Z,4.80
2023-01-19T18:01:32.130Z,5.33
2023-01-19T18:04:02.460Z,5.70
2023-01-19T18:06:32.337Z,5.60
2023-01-19T18:08:59.350Z,4.50
2023-01-19T18:11:27.455Z,4.57
2023-01-19T18:16:39.916Z,4.73
2023-01-19T18:19:11.811Z,5.07
2023-01-19T18:21:39.987Z,4.40
2023-01-19T18:24:09.029Z,4.30
2023-01-19T18:27:17.574Z,4.07
2023-01-19T18:29:44.390Z,4.30
2023-01-19T18:32:12.954Z,5.57
2023-01-19T18:34:40.249Z,5.60
2023-01-19T18:37:09.349Z,5.27
2023-01-19T18:39:35.774Z,5.70
2023-01-19T18:42:02.111Z,5.47
2023-01-19T18:44:29.268Z,5.80
2023-01-19T18:46:56.927Z,5.77
2023-01-19T18:49:23.360Z,5.60
2023-01-19T18:51:57.112Z,5.50
2023-01-19T18:54:26.392Z,6.20
2023-01-19T18:57:25.687Z,5.33
2023-01-19T19:00:19.968Z,5.90
2023-01-19T19:05:48.565Z,6.23
2023-01-19T19:11:32.571Z,5.00
2023-01-19T19:14:19.324Z,4.70
2023-01-19T19:24:40.238Z,4.10
2023-01-19T19:27:08.256Z,4.07
2023-01-19T19:29:45.153Z,4.60
2023-01-19T19:32:12.785Z,5.23
2023-01-19T19:34:46.584Z,4.70
2023-01-19T19:43:14.869Z,4.50
2023-01-19T19:45:41.716Z,5.00
2023-01-19T19:48:08.278Z,6.00
2023-01-19T19:50:36.441Z,5.77
2023-01-19T19:53:02.781Z,5.30
2023-01-19T19:55:30.177Z,5.17
2023-01-19T19:57:57.684Z,5.07
2023-01-19T20:00:25.966Z,5.77
2023-01-19T20:02:52.729Z,4.37
2023-01-19T20:05:19.105Z,5.30
2023-01-19T20:07:55.870Z,5.40
2023-01-19T20:10:22.857Z,5.70
2023-01-19T20:12:50.787Z,5.57
2023-01-19T20:17:58.699Z,5.33
2023-01-19T20:20:29.769Z,5.73
2023-01-19T20:23:00.151Z,5.43
2023-01-19T20:25:28.102Z,6.47
2023-01-19T20:27:54.822Z,6.83
2023-01-19T20:30:29.579Z,5.93
2023-01-19T20:32:56.768Z,5.18
2023-01-19T20:35:23.144Z,5.43
2023-01-19T20:37:52.774Z,5.53
2023-01-19T20:40:25.853Z,6.17
2023-01-19T20:42:57.328Z,4.93
2023-01-19T20:45:28.189Z,6.30
2023-01-19T20:47:54.589Z,5.67
2023-01-19T20:50:22.486Z,6.13
2023-01-19T20:52:50.028Z,6.60
2023-01-19T20:55:19.249Z,7.90
2023-01-19T20:57:49.258Z,6.83
2023-01-19T21:00:15.735Z,7.40
2023-01-19T21:02:42.748Z,6.23
2023-01-19T21:07:56.110Z,6.83
2023-01-19T21:10:23.046Z,6.40
2023-01-19T21:12:49.337Z,5.27
2023-01-19T21:15:15.774Z,7.30
2023-01-19T21:17:44.316Z,6.17
2023-01-19T21:20:11.781Z,7.03
2023-01-19T21:22:38.175Z,6.03
2023-01-19T21:25:05.279Z,5.77
2023-01-19T21:27:33.759Z,6.07
2023-01-19T21:30:25.217Z,6.70
2023-01-19T21:32:51.637Z,6.20
2023-01-19T21:35:25.823Z,6.97
2023-01-19T21:37:52.223Z,6.13
2023-01-19T21:40:18.752Z,6.10
2023-01-19T21:43:00.481Z,6.13
2023-01-19T21:45:26.924Z,6.83
2023-01-19T21:47:53.992Z,7.13
2023-01-19T21:50:28.753Z,6.27
2023-01-19T21:52:55.042Z,5.50
2023-01-19T21:55:23.998Z,7.20
2023-01-19T21:57:52.228Z,7.73
2023-01-19T22:00:18.722Z,6.43
2023-01-19T22:03:04.513Z,7.93
2023-01-19T22:05:39.823Z,6.20
2023-01-19T22:08:10.780Z,6.93
2023-01-19T22:10:47.199Z,5.20
2023-01-19T22:13:14.210Z,5.63
2023-01-19T22:16:08.701Z,6.27
2023-01-19T22:18:49.366Z,6.03
2023-01-19T22:21:24.173Z,6.27
2023-01-19T22:23:51.842Z,6.30
2023-01-19T22:26:21.571Z,6.80
2023-01-19T22:28:48.190Z,5.90
2023-01-19T22:31:18.198Z,5.47
2023-01-19T22:33:48.990Z,6.57
2023-01-19T22:36:21.166Z,6.53
2023-01-19T22:38:52.992Z,5.93
2023-01-19T22:41:21.139Z,6.80
2023-01-19T22:43:47.779Z,6.70
2023-01-19T22:46:16.761Z,7.17
2023-01-19T22:48:43.157Z,7.23
2023-01-19T22:51:09.725Z,7.30
2023-01-19T22:53:37.607Z,7.53
2023-01-19T22:56:11.704Z,7.37
2023-01-19T22:58:40.294Z,6.07
2023-01-19T23:01:08.645Z,6.70
2023-01-19T23:03:35.851Z,6.73
2023-01-19T23:06:03.379Z,6.90
2023-01-19T23:08:29.834Z,6.63
2023-01-19T23:10:56.246Z,7.33
2023-01-19T23:13:25.243Z,6.07
2023-01-19T23:15:51.846Z,5.97
2023-01-19T23:18:18.262Z,6.80
2023-01-19T23:20:47.337Z,5.73
2023-01-19T23:23:13.728Z,6.27
2023-01-19T23:25:40.082Z,6.07
2023-01-19T23:28:13.760Z,6.57
2023-01-19T23:30:40.183Z,5.83
2023-01-19T23:33:11.015Z,6.57
2023-01-19T23:35:42.700Z,6.78
2023-01-19T23:38:09.102Z,6.47
2023-01-19T23:40:36.044Z,4.60
2023-01-19T23:43:02.638Z,5.80
2023-01-19T23:45:30.823Z,5.97
2023-01-19T23:47:58.679Z,5.87
2023-01-19T23:50:25.779Z,6.53
2023-01-19T23:52:52.175Z,5.93
2023-01-19T23:55:18.634Z,5.80
2023-01-19T23:57:46.183Z,5.97
